createdAt,value
2023-10-20T00:04:41.535Z,4.88
2023-10-20T00:09:44.021Z,5.70
2023-10-20T00:14:46.477Z,5.25
2023-10-20T00:19:49.283Z,5.57
2023-10-20T00:24:52.173Z,5.40
2023-10-20T00:29:54.524Z,5.95
2023-10-20T00:34:56.854Z,5.95
2023-10-20T00:39:59.663Z,5.43
2023-10-20T00:45:01.944Z,4.97
2023-10-20T00:50:06.412Z,5.38
2023-10-20T00:55:10.002Z,5.07
2023-10-20T01:00:12.920Z,5.10
2023-10-20T01:05:24.542Z,5.22
2023-10-20T01:10:26.837Z,5.05
2023-10-20T01:15:29.275Z,5.22
2023-10-20T01:20:31.991Z,4.65
2023-10-20T01:25:34.507Z,4.10
2023-10-20T01:30:36.768Z,5.47
2023-10-20T01:35:39.076Z,4.97
2023-10-20T01:40:41.479Z,5.32
2023-10-20T01:45:43.928Z,6.13
2023-10-20T01:50:46.525Z,5.55
2023-10-20T01:55:51.198Z,5.32
2023-10-20T02:00:54.102Z,5.30
2023-10-20T02:05:56.344Z,4.88
2023-10-20T02:10:58.618Z,5.30
2023-10-20T02:16:01.111Z,4.70
2023-10-20T02:21:09.521Z,5.22
2023-10-20T02:26:12.692Z,4.25
2023-10-20T02:31:19.190Z,4.72
2023-10-20T02:36:23.504Z,4.32
2023-10-20T02:41:25.913Z,4.30
2023-10-20T02:46:28.332Z,4.40
2023-10-20T02:51:30.637Z,4.82
2023-10-20T02:56:33.007Z,3.97
2023-10-20T03:01:35.310Z,4.22
2023-10-20T03:06:37.632Z,3.75
2023-10-20T03:11:39.957Z,4.30
2023-10-20T03:16:44.584Z,3.85
2023-10-20T03:21:46.852Z,4.60
2023-10-20T03:26:49.827Z,3.75
2023-10-20T03:31:52.218Z,4.20
2023-10-20T03:36:54.504Z,4.40
2023-10-20T03:41:56.823Z,4.30
2023-10-20T03:46:59.139Z,4.38
2023-10-20T03:52:02.280Z,4.53
2023-10-20T03:57:05.172Z,4.63
2023-10-20T04:02:07.490Z,3.45
2023-10-20T04:07:09.945Z,4.20
2023-10-20T04:12:12.886Z,4.15
2023-10-20T04:17:17.667Z,5.03
2023-10-20T04:22:20.207Z,3.90
2023-10-20T04:27:42.310Z,4.60
2023-10-20T04:33:06.574Z,4.25
2023-10-20T04:38:27.333Z,4.57
2023-10-20T04:43:35.841Z,4.78
2023-10-20T04:48:56.736Z,5.10
2023-10-20T04:54:23.957Z,5.55
2023-10-20T04:59:26.236Z,4.53
2023-10-20T05:04:40.232Z,4.97
2023-10-20T05:09:45.850Z,5.05
2023-10-20T05:14:51.411Z,5.18
2023-10-20T05:19:55.230Z,5.82
2023-10-20T05:24:57.491Z,6.90
2023-10-20T05:30:00.013Z,5.63
2023-10-20T05:35:02.908Z,6.80
2023-10-20T05:40:06.195Z,7.05
2023-10-20T05:45:11.785Z,8.60
2023-10-20T05:50:15.092Z,8.10
2023-10-20T05:55:17.648Z,7.45
2023-10-20T06:00:20.074Z,6.32
2023-10-20T06:05:22.870Z,6.03
2023-10-20T06:10:25.138Z,5.60
2023-10-20T06:15:28.071Z,5.53
2023-10-20T06:20:30.357Z,5.10
2023-10-20T06:25:33.500Z,4.15
2023-10-20T06:30:43.958Z,4.45
2023-10-20T06:35:53.119Z,5.10
2023-10-20T06:40:55.492Z,5.53
2023-10-20T06:45:59.125Z,5.53
2023-10-20T06:51:01.780Z,5.50
2023-10-20T06:56:14.413Z,4.63
2023-10-20T07:01:19.770Z,4.82
2023-10-20T07:06:22.369Z,4.38
2023-10-20T07:11:25.889Z,4.47
2023-10-20T07:16:29.000Z,4.20
2023-10-20T07:21:32.095Z,3.88
2023-10-20T07:26:34.608Z,3.63
2023-10-20T07:31:39.631Z,4.10
2023-10-20T07:36:42.401Z,3.95
2023-10-20T07:41:45.976Z,4.18
2023-10-20T07:46:48.350Z,3.38
2023-10-20T07:51:50.604Z,3.55
2023-10-20T07:56:53.163Z,3.90
2023-10-20T08:01:55.439Z,4.15
2023-10-20T08:07:00.932Z,3.70
2023-10-20T08:12:14.820Z,3.22
2023-10-20T08:17:17.804Z,3.85
2023-10-20T08:22:20.203Z,3.50
2023-10-20T08:27:22.825Z,3.70
2023-10-20T08:32:26.418Z,3.63
2023-10-20T08:37:30.010Z,3.60
2023-10-20T08:42:32.071Z,4.22
2023-10-20T08:47:35.027Z,3.45
2023-10-20T08:52:40.026Z,2.88
2023-10-20T08:57:42.807Z,3.08
2023-10-20T09:02:45.124Z,3.58
2023-10-20T09:08:01.012Z,3.70
2023-10-20T09:13:03.268Z,3.65
2023-10-20T09:18:10.358Z,3.63
2023-10-20T09:23:13.692Z,3.40
2023-10-20T09:28:19.131Z,3.28
2023-10-20T09:33:22.843Z,3.60
2023-10-20T09:38:31.259Z,3.08
2023-10-20T09:43:37.624Z,3.50
2023-10-20T09:48:42.320Z,3.17
2023-10-20T09:53:45.896Z,2.33
2023-10-20T09:58:48.289Z,3.25
2023-10-20T10:04:10.133Z,2.97
2023-10-20T10:09:12.511Z,3.05
2023-10-20T10:14:23.169Z,4.03
2023-10-20T10:19:27.509Z,2.95
2023-10-20T10:24:33.751Z,3.35
2023-10-20T10:30:02.699Z,3.92
2023-10-20T10:35:06.024Z,3.03
2023-10-20T10:40:10.424Z,2.75
2023-10-20T10:45:24.645Z,3.20
2023-10-20T10:50:27.049Z,3.38
2023-10-20T10:55:29.541Z,3.22
2023-10-20T11:00:32.448Z,2.63
2023-10-20T11:05:35.621Z,2.67
2023-10-20T11:10:43.898Z,2.30
2023-10-20T11:15:46.376Z,2.92
2023-10-20T11:20:51.224Z,2.75
2023-10-20T11:25:53.635Z,2.53
2023-10-20T11:30:56.926Z,2.47
2023-10-20T11:36:01.894Z,2.53
2023-10-20T11:41:04.274Z,1.85
2023-10-20T11:46:08.158Z,1.70
2023-10-20T11:51:12.151Z,1.60
2023-10-20T11:56:17.012Z,1.77
2023-10-20T12:01:19.364Z,1.80
2023-10-20T12:06:22.297Z,2.22
2023-10-20T12:11:25.757Z,2.30
2023-10-20T12:16:31.595Z,2.20
2023-10-20T12:21:34.165Z,2.08
2023-10-20T12:26:38.381Z,1.92
2023-10-20T12:31:41.016Z,2.10
2023-10-20T12:36:44.484Z,2.20
2023-10-20T12:41:47.441Z,2.30
2023-10-20T12:46:49.913Z,2.30
2023-10-20T12:51:52.350Z,2.15
2023-10-20T12:56:54.711Z,2.47
2023-10-20T13:01:57.536Z,2.13
2023-10-20T13:07:01.137Z,2.20
2023-10-20T13:12:04.054Z,2.08
2023-10-20T13:17:06.695Z,2.03
2023-10-20T13:22:08.946Z,2.03
2023-10-20T13:27:11.780Z,2.42
2023-10-20T13:32:14.071Z,2.22
2023-10-20T13:37:16.389Z,2.10
2023-10-20T13:42:18.663Z,1.90
2023-10-20T13:47:21.159Z,2.22
2023-10-20T13:52:23.734Z,2.58
2023-10-20T13:57:26.463Z,2.65
2023-10-20T14:02:29.916Z,2.33
2023-10-20T14:07:33.004Z,3.00
2023-10-20T14:12:37.217Z,2.42
2023-10-20T14:17:39.594Z,2.35
2023-10-20T14:22:41.945Z,2.60
2023-10-20T14:27:44.249Z,2.70
2023-10-20T14:32:46.554Z,2.47
2023-10-20T14:37:48.896Z,2.90
2023-10-20T14:42:51.158Z,2.65
2023-10-20T14:47:53.435Z,2.28
2023-10-20T14:52:57.622Z,2.47
2023-10-20T14:58:01.050Z,2.58
2023-10-20T15:03:03.535Z,2.85
2023-10-20T15:08:06.156Z,2.85
2023-10-20T15:13:08.828Z,2.95
2023-10-20T15:18:11.340Z,3.78
2023-10-20T15:23:18.492Z,2.47
2023-10-20T15:28:22.427Z,2.28
2023-10-20T15:33:24.766Z,2.70
2023-10-20T15:38:27.036Z,3.50
2023-10-20T15:43:29.672Z,4.43
2023-10-20T15:48:32.110Z,3.58
2023-10-20T15:53:37.256Z,6.05
2023-10-20T15:58:39.630Z,4.80
2023-10-20T16:03:42.286Z,5.22
2023-10-20T16:08:44.808Z,5.05
2023-10-20T16:13:47.080Z,6.35
2023-10-20T16:18:49.425Z,5.90
2023-10-20T16:23:52.044Z,6.25
2023-10-20T16:28:54.381Z,6.07
2023-10-20T16:33:56.701Z,4.90
2023-10-20T16:38:59.227Z,5.88
2023-10-20T16:44:01.564Z,5.50
2023-10-20T16:49:03.880Z,5.18
2023-10-20T16:54:06.377Z,6.45
2023-10-20T16:59:09.281Z,6.25
2023-10-20T17:04:23.249Z,5.65
2023-10-20T17:09:25.812Z,7.32
2023-10-20T17:14:29.208Z,5.93
2023-10-20T17:19:31.492Z,6.75
2023-10-20T17:24:34.422Z,6.50
2023-10-20T17:29:38.129Z,6.10
2023-10-20T17:34:40.832Z,7.25
2023-10-20T17:39:43.059Z,7.35
2023-10-20T17:44:45.416Z,7.47
2023-10-20T17:49:47.808Z,7.90
2023-10-20T17:54:51.233Z,8.88
2023-10-20T17:59:53.645Z,8.35
2023-10-20T18:04:56.271Z,8.60
2023-10-20T18:09:58.540Z,7.97
2023-10-20T18:15:01.137Z,7.57
2023-10-20T18:20:03.520Z,7.63
2023-10-20T18:25:07.269Z,9.52
2023-10-20T18:30:10.314Z,9.80
2023-10-20T18:35:12.679Z,11.30
2023-10-20T18:40:15.091Z,12.52
2023-10-20T18:45:17.434Z,10.93
2023-10-20T18:50:19.728Z,11.27
2023-10-20T18:55:22.843Z,13.40
2023-10-20T19:00:25.303Z,14.02
2023-10-20T19:05:27.984Z,13.10
2023-10-20T19:10:31.616Z,12.63
2023-10-20T19:15:34.797Z,11.77
2023-10-20T19:20:37.689Z,10.32
2023-10-20T19:25:41.173Z,11.38
2023-10-20T19:30:44.077Z,10.48
2023-10-20T19:35:46.376Z,10.88
2023-10-20T19:40:49.090Z,11.10
2023-10-20T19:45:51.985Z,8.95
2023-10-20T19:50:54.390Z,8.82
2023-10-20T19:55:56.767Z,9.40
2023-10-20T20:01:01.947Z,9.35
2023-10-20T20:06:11.488Z,8.63
2023-10-20T20:11:16.200Z,8.73
2023-10-20T20:16:18.498Z,8.90
2023-10-20T20:21:20.921Z,8.15
2023-10-20T20:26:23.588Z,9.32
2023-10-20T20:31:26.996Z,9.75
2023-10-20T20:36:29.420Z,8.60
2023-10-20T20:41:32.349Z,8.15
2023-10-20T20:46:34.867Z,9.20
2023-10-20T20:51:37.651Z,8.45
2023-10-20T20:56:39.913Z,13.43
2023-10-20T21:01:42.611Z,18.55
2023-10-20T21:06:44.866Z,21.30
2023-10-20T21:11:47.172Z,13.07
2023-10-20T21:16:49.541Z,11.32
2023-10-20T21:21:51.813Z,10.23
2023-10-20T21:26:57.200Z,10.40
2023-10-20T21:31:59.705Z,10.40
2023-10-20T21:37:02.134Z,11.57
2023-10-20T21:42:06.307Z,12.07
2023-10-20T21:47:08.732Z,11.63
2023-10-20T21:52:10.946Z,8.07
2023-10-20T21:57:13.193Z,9.38
2023-10-20T22:02:18.080Z,8.27
2023-10-20T22:07:20.365Z,7.47
2023-10-20T22:12:22.794Z,8.75
2023-10-20T22:17:25.175Z,8.18
2023-10-20T22:22:27.997Z,8.25
2023-10-20T22:27:30.896Z,7.70
2023-10-20T22:32:33.527Z,7.15
2023-10-20T22:37:35.846Z,8.68
2023-10-20T22:42:38.208Z,7.53
2023-10-20T22:47:40.575Z,7.07
2023-10-20T22:52:43.082Z,7.78
2023-10-20T22:57:45.329Z,8.07
2023-10-20T23:02:49.564Z,8.77
2023-10-20T23:07:51.944Z,8.20
2023-10-20T23:12:54.345Z,8.20
2023-10-20T23:17:56.759Z,7.93
2023-10-20T23:22:59.137Z,7.20
2023-10-20T23:28:01.596Z,7.82
2023-10-20T23:33:06.067Z,7.85
2023-10-20T23:38:08.408Z,8.60
2023-10-20T23:43:10.794Z,6.65
2023-10-20T23:48:13.120Z,6.95
2023-10-20T23:53:15.570Z,7.70
2023-10-20T23:58:18.075Z,8.05
